Site contains unofficial IBTrACS data. Visit the IBTrACS Website to access archived data.

1933 Tropical Cyclone NOT_NAMED (1933359S17154)


IBTrACS version v04r00. Visit IBTrACS website for data access.
Please direct all questions to the IBTrACS Q and A forum

Storm track - Intensity - Wind Radii - Intensity Data - Source Data - All data

Summary Information

Storm ID 1933359S17154
Start Dec 24 23Z
Max Intensity 45 kt (Dec 26 00Z), 990 mb (Dec 25 23Z)
End Dec 29 23Z
ATCF IDs
Track status Best track data.

Storm track plot

Map of storm track

Intensity plots

Map of storm track

Radial wind information

No radial wind information for this storm


Position and Intensity Table

BASIN ISO_TIME_________ NATURE LAT LON WMO PRES BOM PRES DS824 WIND DS824 PRES
degrees north degrees east mb mb kts mb
SP 1933-12-24 23:00:00 NR -16.70 153.80
SP 1933-12-25 00:00:00 TS -16.74 153.77
SP 03:00:00 TS -16.81 153.65
SP 06:00:00 TS -16.88 153.53
SP 09:00:00 TS -16.95 153.41
SP 11:00:00 TS -17.01 153.32
SP 12:00:00 TS -17.03 153.28
SP 15:00:00 TS -17.12 153.14
SP 18:00:00 TS -17.20 153.01
SP 21:00:00 TS -17.28 152.88
SP 23:00:00 TS -17.33 152.81 990 990
SP 1933-12-26 00:00:00 TS -17.35 152.78 45 990
SP 03:00:00 TS -17.40 152.69
SP 06:00:00 TS -17.44 152.62
SP 09:00:00 TS -17.49 152.55
SP 11:00:00 TS -17.53 152.51
SP 12:00:00 TS -17.54 152.49
SP 15:00:00 TS -17.61 152.43
SP 18:00:00 TS -17.68 152.37
SP 21:00:00 TS -17.78 152.30
SP 23:00:00 TS -17.85 152.24
SP 1933-12-27 00:00:00 TS -17.88 152.20
SP 03:00:00 TS -17.93 152.03
SP 06:00:00 TS -18.00 151.83
SP 09:00:00 TS -18.10 151.64
SP 11:00:00 TS -18.18 151.53
SP 12:00:00 TS -18.22 151.47
SP 15:00:00 TS -18.37 151.32
SP 18:00:00 TS -18.61 151.22
SP 21:00:00 TS -18.96 151.22
SP 23:00:00 TS -19.28 151.27
SP 1933-12-28 00:00:00 TS -19.47 151.32
SP 02:00:00 TS -19.92 151.47
SP 03:00:00 TS -20.15 151.58
SP 06:00:00 TS -20.85 152.04
SP 09:00:00 TS -21.54 152.65
SP 11:00:00 TS -21.96 153.09
SP 12:00:00 TS -22.16 153.31
SP 15:00:00 TS -22.71 154.01
SP 18:00:00 TS -23.18 154.74
SP 21:00:00 TS -23.59 155.48
SP 23:00:00 TS -23.82 155.95
SP 1933-12-29 00:00:00 TS -23.91 156.17
SP 03:00:00 NR -24.15 156.76
SP 06:00:00 NR -24.35 157.30
SP 09:00:00 NR -24.50 157.80
SP 11:00:00 NR -24.59 158.11
SP 12:00:00 NR -24.63 158.26
SP 15:00:00 NR -24.76 158.71
SP 18:00:00 NR -24.89 159.14
SP 21:00:00 NR -25.02 159.57
SP 23:00:00 NR -25.10 159.85

Source Information

Agency Information
USA
TOKYO
CMA
HKO
NEWDELHI
REUNION
BOM IDCKMSTM0S.csv:Line=807:unnamed
NADI
WELLINGTON
DS824 aus_area.dat:78:NOT NAMED
TD9636 cons_worldwide_trop_cyclone_18710101-19891231-006:Line=1948
TD9635
NEUMANN
MLC

All available IBTrACS Data

SEASON BASIN SUBBASIN ISO_TIME_________ NATURE LAT LON WMO PRES WMO AGENCY DIST2LAND LANDFALL IFLAG USA SSHS BOM LAT BOM LON BOM PRES BOM PRES_METHOD DS824 LAT DS824 LON DS824 STAGE DS824 WIND DS824 PRES TD9636 LAT TD9636 LON TD9636 STAGE STORM SPEED STORM DIR
Year degrees north degrees east mb km km 1 degrees north degrees east mb degrees north degrees east kts mb degrees north degrees east kts degrees
1934 SP EA 1933-12-24 23:00:00 NR -16.70 153.80 bom 663 663 ______O___O___ -1 -16.80 153.80 -16.60 153.80 7 3 229
1934 SP EA 1933-12-25 00:00:00 TS -16.74 153.77 663 648 ______P__OP___ -1 -16.82 153.76 -16.80 153.80 TC -16.62 153.76 7 3 233
1934 SP EA 03:00:00 TS -16.81 153.65 648 624 ______P__PP___ -1 -16.89 153.63 -16.87 153.67 TC -16.68 153.66 7 3 238
1934 SP EA 06:00:00 TS -16.88 153.53 624 616 ______P__PP___ -1 -16.96 153.51 -16.93 153.55 TC -16.75 153.54 7 3 238
1934 SP EA 09:00:00 TS -16.95 153.41 609 600 ______P__PP___ -1 -17.03 153.39 -17.00 153.43 TC -16.83 153.40 7 3 238
1934 SP EA 11:00:00 TS -17.01 153.32 600 600 ______P__PO___ -1 -17.07 153.31 -17.04 153.35 TC -16.90 153.30 7 3 238
1934 SP EA 12:00:00 TS -17.03 153.28 600 577 ______P__PP___ -1 -17.09 153.27 -17.07 153.31 TC -16.94 153.24 7 3 237
1934 SP EA 15:00:00 TS -17.12 153.14 577 561 ______P__PP___ -1 -17.16 153.16 -17.13 153.20 TC -17.07 153.06 7 3 237
1934 SP EA 18:00:00 TS -17.20 153.01 561 546 ______P__PP___ -1 -17.21 153.06 -17.19 153.09 TC -17.20 152.87 7 3 236
1934 SP EA 21:00:00 TS -17.28 152.88 546 538 ______P__PP___ -1 -17.27 152.96 -17.25 152.99 TC -17.33 152.70 7 3 236
1934 SP EA 23:00:00 TS -17.33 152.81 990 bom 538 538 ______O__PO___ -1 -17.30 152.90 990 4 -17.28 152.93 TC -17.40 152.60 7 2 238
1934 SP EA 1933-12-26 00:00:00 TS -17.35 152.78 538 523 ______P__OP___ -1 -17.32 152.87 -17.30 152.90 TC 45 990 -17.43 152.56 7 2 237
1934 SP EA 03:00:00 TS -17.40 152.69 523 514 ______P__PP___ -1 -17.36 152.79 -17.35 152.82 TC -17.48 152.46 7 2 238
1934 SP EA 06:00:00 TS -17.44 152.62 514 507 ______P__PP___ -1 -17.40 152.72 -17.40 152.74 TC -17.53 152.39 7 2 234
1934 SP EA 09:00:00 TS -17.49 152.55 507 499 ______P__PP___ -1 -17.45 152.65 -17.46 152.67 TC -17.57 152.33 7 2 232
1934 SP EA 11:00:00 TS -17.53 152.51 499 499 ______P__PO___ -1 -17.48 152.61 -17.50 152.63 TC -17.60 152.30 7 2 227
1934 SP EA 12:00:00 TS -17.54 152.49 499 484 ______P__PP___ -1 -17.50 152.58 -17.52 152.61 TC -17.62 152.28 7 2 224
1934 SP EA 15:00:00 TS -17.61 152.43 484 477 ______P__PP___ -1 -17.56 152.51 -17.59 152.54 TC -17.67 152.25 7 2 219
1934 SP EA 18:00:00 TS -17.68 152.37 477 462 ______P__PP___ -1 -17.64 152.44 -17.67 152.47 TC -17.74 152.21 7 2 216
1934 SP EA 21:00:00 TS -17.78 152.30 462 453 ______P__PP___ -1 -17.73 152.36 -17.78 152.39 TC -17.82 152.15 7 3 216
1934 SP EA 23:00:00 TS -17.85 152.24 bom 446 446 ______O__PO___ -1 -17.80 152.30 -17.86 152.33 TC -17.90 152.10 7 3 222
1934 SP EA 1933-12-27 00:00:00 TS -17.88 152.20 446 430 ______P__OP___ -1 -17.79 152.25 -17.90 152.30 TC -17.94 152.06 7 3 248
1934 SP EA 03:00:00 TS -17.93 152.03 430 406 ______P__PP___ -1 -17.74 152.10 -17.96 152.07 TC -18.10 151.91 7 4 251
1934 SP EA 06:00:00 TS -18.00 151.83 406 391 ______P__PP___ -1 -17.70 151.94 -18.02 151.81 TC -18.28 151.74 7 4 246
1934 SP EA 09:00:00 TS -18.10 151.64 383 368 ______P__PP___ -1 -17.71 151.78 -18.11 151.55 TC -18.47 151.59 7 4 239
1934 SP EA 11:00:00 TS -18.18 151.53 368 368 ______P__PO___ -1 -17.74 151.68 -18.19 151.40 TC -18.60 151.50 7 4 233
1934 SP EA 12:00:00 TS -18.22 151.47 368 337 ______P__PP___ -1 -17.78 151.63 -18.24 151.33 TC -18.63 151.44 7 4 226
1934 SP EA 15:00:00 TS -18.37 151.32 337 315 ______P__PP___ -1 -17.96 151.50 -18.43 151.16 TC -18.73 151.29 7 5 211
1934 SP EA 18:00:00 TS -18.61 151.22 315 296 ______P__PP___ -1 -18.28 151.39 -18.69 151.08 TC -18.86 151.19 7 6 189
1934 SP EA 21:00:00 TS -18.96 151.22 290 279 ______P__PP___ -1 -18.76 151.32 -19.04 151.12 TC -19.07 151.20 7 8 176
1934 SP EA 23:00:00 TS -19.28 151.27 bom 284 279 ______O__PO___ -1 -19.20 151.30 -19.33 151.22 TC -19.30 151.30 7 11 170
1934 SP EA 1933-12-28 00:00:00 TS -19.47 151.32 274 270 ______P__OP___ -1 -19.46 151.28 -19.50 151.30 TC -19.46 151.38 7 13 164
1934 SP EA 02:00:00 TS -19.92 151.47 bom 274 264 ______O__PP___ -1 -20.00 151.30 -19.91 151.51 TC -19.85 151.59 7 14 160
1934 SP EA 03:00:00 TS -20.15 151.58 273 223 ______P__PP___ -1 -20.25 151.37 -20.13 151.64 TC -20.06 151.72 7 16 150
1934 SP EA 06:00:00 TS -20.85 152.04 214 212 ______P__PP___ -1 -20.97 151.81 -20.83 152.10 TC -20.75 152.20 7 17 144
1934 SP EA 09:00:00 TS -21.54 152.65 216 216 ______P__PP___ -1 -21.61 152.49 -21.54 152.66 TC -21.46 152.78 7 18 139
1934 SP EA 11:00:00 TS -21.96 153.09 bom 243 243 ______O__PO___ -1 -22.00 153.00 -21.99 153.08 TC -21.90 153.20 7 18 135
1934 SP EA 12:00:00 TS -22.16 153.31 259 242 ______P__OP___ -1 -22.20 153.23 -22.20 153.30 TC -22.09 153.41 7 17 131
1934 SP EA 15:00:00 TS -22.71 154.01 245 225 ______P__PP___ -1 -22.75 153.96 -22.76 153.98 TC -22.62 154.07 7 17 128
1934 SP EA 18:00:00 TS -23.18 154.74 228 228 ______P__PP___ -1 -23.24 154.74 -23.22 154.70 TC -23.09 154.78 7 16 123
1934 SP EA 21:00:00 TS -23.59 155.48 260 260 ______P__PP___ -1 -23.66 155.51 -23.63 155.44 TC -23.48 155.47 7 15 120
1934 SP EA 23:00:00 TS -23.82 155.95 bom 286 286 ______O__PO___ -1 -23.90 156.00 -23.88 155.95 TC -23.70 155.90 7 14 117
1934 SP EA 1933-12-29 00:00:00 TS -23.91 156.17 308 308 ______P__OP___ -1 -24.01 156.23 -24.00 156.20 TC -23.79 156.09 7 12 115
1934 SP EA 03:00:00 NR -24.15 156.76 354 354 ______P___P___ -1 -24.29 156.89 TC -24.02 156.64 7 11 113
1934 SP EA 06:00:00 NR -24.35 157.30 401 399 ______P___P___ -1 -24.51 157.47 TC -24.18 157.13 7 10 110
1934 SP EA 09:00:00 NR -24.50 157.80 447 447 ______P___P___ -1 -24.69 158.00 TC -24.31 157.60 7 9 108
1934 SP EA 11:00:00 NR -24.59 158.11 476 476 ______P___O___ -1 -24.78 158.32 TC -24.40 157.90 7 9 108
1934 SP EA 12:00:00 NR -24.63 158.26 496 495 ______P___P___ -1 -24.82 158.48 -24.45 158.05 7 9 108
1934 SP EA 15:00:00 NR -24.76 158.71 534 534 ______P___P___ -1 -24.92 158.92 -24.61 158.50 7 8 108
1934 SP EA 18:00:00 NR -24.89 159.14 574 574 ______P___P___ -1 -25.00 159.34 -24.78 158.95 7 8 108
1934 SP EA 21:00:00 NR -25.02 159.57 624 624 ______P___P___ -1 -25.06 159.74 -24.97 159.40 7 8 108
1934 SP EA 23:00:00 NR -25.10 159.85 bom 654 ______O___O___ -1 -25.10 160.00 -25.10 159.70 7 8 108